MSC Clorinda — 3FDW7 — position and weather

sailwx.info

Track history (hours):
 
Tides and Currents Weather Stations Pressure Air Temp Water Temp Dewpoint Dewpoint Depression Visibility Wind Speed Wind Dir Waves Ship Positions

MSC Clorinda

Last reported at 2016-Sep-01 01:31 UTC. Time now 2016-Sep-01 05:40 UTC.
Position N 29°53' E 122°02'.

Length 366 m; draft 13.5 m.

Type: Ship (hazmat cat A). MMSI: 373233000.

Date/timePositionNaut miles runAvg speedWind from/ knotsBaromVisibWave heightAir tempDewpointWater temp
2016-Sep-01 01:31N 29°53' E 122°02'0 0.0
2016-Aug-31 21:31N 29°53' E 122°02'0 0.0
2016-Aug-31 17:25N 29°53' E 122°02'0 0.0
2016-Aug-31 16:19N 29°53' E 122°02'0 0.0
2016-Aug-31 15:31N 29°53' E 122°02'0 0.0
2016-Aug-31 12:31N 29°53' E 122°02'0 0.5
2016-Aug-31 11:33N 29°54' E 122°03'8 7.9
2016-Aug-31 10:33N 29°52' E 122°12'1110.8
2016-Aug-31 09:34N 29°45' E 122°20'1312.9
2016-Aug-31 08:33N 29°42' E 122°35'1010.2
2016-Aug-31 07:33N 29°47' E 122°45'1413.7
2016-Aug-31 06:33N 30°00' E 122°49'1514.9
2016-Aug-31 05:31N 30°16' E 122°49'1616.0
2016-Aug-31 04:31N 30°28' E 122°37'4 0.2
2016-Aug-30 05:32N 30°30' E 122°41'1414.6
2016-Aug-30 04:33N 30°31' E 122°57'  
Track history (hours):
 
Tides and Currents Weather Stations Pressure Air Temp Water Temp Dewpoint Dewpoint Depression Visibility Wind Speed Wind Dir Waves Ship Positions

MSC Clorinda

Last reported at 2016-Sep-01 01:31 UTC. Time now 2016-Sep-01 05:40 UTC.
Position N 29°53' E 122°02'.

Length 366 m; draft 13.5 m.

Type: Ship (hazmat cat A). MMSI: 373233000.

Date/timePositionNaut miles runAvg speedWind from/ knotsBaromVisibWave heightAir tempDewpointWater temp
2016-Sep-01 01:31N 29°53' E 122°02'0 0.0
2016-Aug-31 21:31N 29°53' E 122°02'0 0.0
2016-Aug-31 17:25N 29°53' E 122°02'0 0.0
2016-Aug-31 16:19N 29°53' E 122°02'0 0.0
2016-Aug-31 15:31N 29°53' E 122°02'0 0.0
2016-Aug-31 12:31N 29°53' E 122°02'0 0.5
2016-Aug-31 11:33N 29°54' E 122°03'8 7.9
2016-Aug-31 10:33N 29°52' E 122°12'1110.8
2016-Aug-31 09:34N 29°45' E 122°20'1312.9
2016-Aug-31 08:33N 29°42' E 122°35'1010.2
2016-Aug-31 07:33N 29°47' E 122°45'1413.7
2016-Aug-31 06:33N 30°00' E 122°49'1514.9
2016-Aug-31 05:31N 30°16' E 122°49'1616.0
2016-Aug-31 04:31N 30°28' E 122°37'4 0.2
2016-Aug-30 05:32N 30°30' E 122°41'1414.6
2016-Aug-30 04:33N 30°31' E 122°57'  

Dump ship's entire track history